Delta Virtual Airport Information Service

Oslo Gardermoen Airport

ICAO: ENGM Country: Norway
Latitude: 60.1939 Longitude: 11.1004
Latest Arrival : SAS4403 (ENTC-ENGM) Latest Departure : SAS205 (ENGM-ENCN)


WX CaptureLIVE
Data provided by noaa.gov | Fetched at 00:47:10

METAR : ENGM 080620Z 33004KT CAVOK M07/M11 Q1022 NOSIG

TAF : ENGM 080500Z 0806/0906 33005KT CAVOK BECMG 0809/0811 20010KT BECMG 0903/0906 34005KT


Runway Data for ENGM
Data provided by openaviationdata.com

Runway ID Mag Var Hdg Length Elevation Surface ILS Freq ILS Id ILS Slope
01L 2 13° 11784 ft 681 ft Asphalt 110.3 OBW 3
01R 2 13° 9656 ft 681 ft Asphalt 111.95 ONE 3
19L 2 193° 9656 ft 681 ft Asphalt 110.55 GME 3
19R 2 193° 11784 ft 681 ft Asphalt 111.3 GSW 3

Oslo Gardermoen Airport, Norway
Use only for reference purposes



Not for navigational purposes.